Flight Track Log - Related Links

Times and Time Zones

All times are in EDT time to prevent confusion due to time zone crossing. See the N600GD flight status page for this flight to view local times or setup timezone preferences in your user account.

Time Position Orientation Groundspeed Altitude Reporting Facility
EDT Latitude Longitude Course Direction KTS MPH feet Rate Location/Type
Fri 07:20:40 PM 40.8167 -73.0833 90° East 92 106 900  Level New York TRACON
Fri 07:21:40 PM 40.8167 -73.0500 90° East 89 102 1,700 800 Climbing New York TRACON
Fri 07:22:40 PM 40.8167 -73.0167 90° East 92 106 2,500 783 Climbing New York TRACON
Fri 07:23:35 PM 40.8167 -73.0000 90° East 88 101 3,200 737 Climbing New York TRACON
Fri 07:24:34 PM 40.8333 -72.9667 57° Northeast 85 98 3,900 600 Climbing New York TRACON
Fri 07:25:35 PM 40.8333 -72.9333 90° East 95 109 4,400 500 Climbing New York TRACON
Fri 07:26:34 PM 40.8333 -72.9000 90° East 104 120 4,900 500 Climbing New York TRACON
Fri 07:27:35 PM 40.8500 -72.8500 66° East 109 125 5,400 500 Climbing New York TRACON
Fri 07:28:34 PM 40.8500 -72.8167 90° East 107 123 5,900 555 Climbing New York TRACON
Fri 07:29:34 PM 40.8500 -72.7833 90° East 101 116 6,500 550 Climbing New York TRACON
Fri 07:30:34 PM 40.8667 -72.7500 57° Northeast 103 119 7,000 250 Climbing New York TRACON
Fri 07:31:34 PM 40.8667 -72.7000 90° East 132 152 7,000  Level New York TRACON
Fri 07:32:34 PM 40.8667 -72.6500 90° East 148 170 7,000  Level New York TRACON
Fri 07:33:34 PM 40.8833 -72.6000 66° East 148 170 7,000  Level New York TRACON
Fri 07:34:34 PM 40.8833 -72.5500 90° East 145 167 7,000  Level New York TRACON
Fri 07:35:35 PM 40.9000 -72.4833 72° East 145 167 7,000  Level New York TRACON
Fri 07:36:35 PM 40.9000 -72.4333 90° East 149 171 7,000  Level New York TRACON
Fri 07:37:40 PM 40.9167 -72.3833 66° East 147 169 7,000 36 Level New York TRACON
Fri 07:39:21 PM 40.9353 -72.3056 72° East 159 183 7,100 38 Climbing Boston Center
Fri 07:40:16 PM 40.9706 -72.2642 42° Northeast 179 206 7,100  Level Boston Center
Fri 07:41:29 PM 41.0144 -72.2200 37° Northeast 158 182 7,100  Level Boston Center
Fri 07:42:30 PM 41.0475 -72.1814 41° Northeast 162 186 7,100  Level Boston Center
Fri 07:43:31 PM 41.0808 -72.1456 39° Northeast 158 182 7,100 -273 Level Boston Center
Fri 07:44:20 PM 41.1119 -72.1122 39° Northeast 164 189 6,600 -545 Descending Boston Center
Fri 07:45:32 PM 41.1578 -72.0625 39° Northeast 173 199 6,000 -541 Descending Boston Center
Fri 07:46:33 PM 41.1950 -72.0208 40° Northeast 171 197 5,400 -492 Descending Boston Center
Fri 07:47:34 PM 41.2283 -71.9819 41° Northeast 166 191 5,000 -197 Descending Boston Center
Fri 07:48:35 PM 41.2614 -71.9458 39° Northeast 152 175 5,000  Level Boston Center
Fri 07:50:43 PM 41.3297 -71.8706 40° Northeast 149 171 5,000  Level Boston Center
Fri 07:51:44 PM 41.3567 -71.8317 47° Northeast 149 171 5,000  Level Boston Center
Fri 07:52:45 PM 41.3836 -71.7928 47° Northeast 148 170 5,000  Level Boston Center
Fri 07:53:45 PM 41.4106 -71.7508 49° Northeast 142 163 5,000  Level Boston Center
Fri 07:54:40 PM 41.4311 -71.7147 53° Northeast 142 163 5,000  Level Boston Center
Fri 07:55:41 PM 41.4578 -71.6728 50° Northeast 142 163 5,000  Level Boston Center
Fri 07:56:42 PM 41.4847 -71.6336 47° Northeast 143 165 5,000  Level Boston Center
Fri 07:57:43 PM 41.5094 -71.5975 48° Northeast 143 165 5,000  Level Boston Center
Fri 07:58:38 PM 41.5342 -71.5583 50° Northeast 144 166 5,000  Level Boston Center
Fri 07:59:39 PM 41.5608 -71.5161 50° Northeast 143 165 5,000  Level Boston Center
Fri 08:00:39 PM 41.5856 -71.4769 50° Northeast 140 161 5,000  Level Boston Center
Fri 08:01:40 PM 41.6122 -71.4350 50° Northeast 140 161 5,000 -141 Level Boston Center
Fri 08:02:47 PM 41.6389 -71.3928 50° Northeast 140 161 4,700 -422 Descending Boston Center
Fri 08:03:48 PM 41.6636 -71.3508 52° Northeast 145 167 4,100 -621 Descending Boston Center
Fri 08:04:43 PM 41.6903 -71.3114 48° Northeast 146 168 3,500 -569 Descending Boston Center
Fri 08:05:44 PM 41.7169 -71.2692 50° Northeast 141 162 3,000 -234 Descending Boston Center
Fri 08:06:51 PM 41.7394 -71.2356 48° Northeast 110 127 3,000  Level Boston Center
Fri 08:07:45 PM 41.7581 -71.2044 51° Northeast 112 129 3,000  Level Boston Center

Login

Don't have an account? Register now (free) for customized features, flight alerts, and more!